Sutter Island, California
Current Conditions -  °F | °C
As of 10:16 PM on Friday 28 Nov 2014 (Local Time) from KSAC Reporting Station
Heavy Rain Heavy Rain  
Wind Chill: 55°   Ceiling: 4000
Heat Index: 55°   Visibility: 2mi
Dew Point: 54°   Wind: 6mph
Humidity: 94%   Direction: 130°SE
Pressure: 29.87"   Gusts: NA
Location:  38.3168°N, 121.532°W
Report Text: KSAC 290616Z AUTO 13005KT 2SM +RA BR FEW017 BKN040 OVC055 13/12 A2987 RMK AO2 P0008
Loading
Personal Weather Stations






























Interactive Weather Map New forecast layout! Learn more

10-Day Weather Forecast

Advertisements
Track Severe Weather on mobile